sensor_id;sensor_type;location;lat;lon;timestamp;P1;durP1;ratioP1;P2;durP2;ratioP2
60312;SDS011;46158;52.850;6.970;2024-03-02T00:00:18;5.80;;;2.50;;
60312;SDS011;46158;52.850;6.970;2024-03-02T00:02:46;4.15;;;2.25;;
60312;SDS011;46158;52.850;6.970;2024-03-02T00:05:14;5.57;;;2.40;;
60312;SDS011;46158;52.850;6.970;2024-03-02T00:07:46;4.85;;;2.58;;
60312;SDS011;46158;52.850;6.970;2024-03-02T00:10:22;6.90;;;2.40;;
60312;SDS011;46158;52.850;6.970;2024-03-02T00:12:54;3.25;;;2.25;;
60312;SDS011;46158;52.850;6.970;2024-03-02T00:17:55;5.82;;;2.60;;
60312;SDS011;46158;52.850;6.970;2024-03-02T00:20:24;4.32;;;2.33;;
60312;SDS011;46158;52.850;6.970;2024-03-02T00:22:52;7.30;;;2.60;;
60312;SDS011;46158;52.850;6.970;2024-03-02T00:25:26;6.45;;;2.50;;
60312;SDS011;46158;52.850;6.970;2024-03-02T00:27:52;4.68;;;2.45;;
60312;SDS011;46158;52.850;6.970;2024-03-02T00:32:58;4.78;;;2.50;;
60312;SDS011;46158;52.850;6.970;2024-03-02T00:35:24;4.72;;;2.30;;
60312;SDS011;46158;52.850;6.970;2024-03-02T00:37:50;5.38;;;2.42;;
60312;SDS011;46158;52.850;6.970;2024-03-02T00:40:16;6.70;;;2.55;;
60312;SDS011;46158;52.850;6.970;2024-03-02T00:42:42;6.57;;;2.55;;
60312;SDS011;46158;52.850;6.970;2024-03-02T00:45:08;5.05;;;2.42;;
60312;SDS011;46158;52.850;6.970;2024-03-02T00:47:37;4.10;;;2.30;;
60312;SDS011;46158;52.850;6.970;2024-03-02T00:50:04;6.07;;;2.58;;
60312;SDS011;46158;52.850;6.970;2024-03-02T00:52:31;7.28;;;2.88;;
60312;SDS011;46158;52.850;6.970;2024-03-02T00:54:58;7.68;;;2.67;;
60312;SDS011;46158;52.850;6.970;2024-03-02T00:57:24;7.50;;;2.85;;
60312;SDS011;46158;52.850;6.970;2024-03-02T00:59:51;7.75;;;2.80;;
60312;SDS011;46158;52.850;6.970;2024-03-02T01:02:17;6.93;;;2.88;;
60312;SDS011;46158;52.850;6.970;2024-03-02T01:04:45;5.18;;;2.67;;
60312;SDS011;46158;52.850;6.970;2024-03-02T01:07:10;7.00;;;2.83;;
60312;SDS011;46158;52.850;6.970;2024-03-02T01:09:36;8.25;;;2.80;;
60312;SDS011;46158;52.850;6.970;2024-03-02T01:12:02;6.10;;;2.88;;
60312;SDS011;46158;52.850;6.970;2024-03-02T01:14:27;7.03;;;2.80;;
60312;SDS011;46158;52.850;6.970;2024-03-02T01:16:53;5.10;;;2.63;;
60312;SDS011;46158;52.850;6.970;2024-03-02T01:19:19;5.18;;;2.80;;
60312;SDS011;46158;52.850;6.970;2024-03-02T01:21:44;7.40;;;2.80;;
60312;SDS011;46158;52.850;6.970;2024-03-02T01:24:10;5.30;;;2.50;;
60312;SDS011;46158;52.850;6.970;2024-03-02T01:26:35;6.50;;;2.97;;
60312;SDS011;46158;52.850;6.970;2024-03-02T01:29:01;6.07;;;2.80;;
60312;SDS011;46158;52.850;6.970;2024-03-02T01:31:27;5.50;;;2.55;;
60312;SDS011;46158;52.850;6.970;2024-03-02T01:33:52;6.35;;;2.83;;
60312;SDS011;46158;52.850;6.970;2024-03-02T01:36:18;7.43;;;2.67;;
60312;SDS011;46158;52.850;6.970;2024-03-02T01:38:43;7.07;;;2.80;;
60312;SDS011;46158;52.850;6.970;2024-03-02T01:41:09;6.38;;;2.70;;
60312;SDS011;46158;52.850;6.970;2024-03-02T01:43:36;6.60;;;2.80;;
60312;SDS011;46158;52.850;6.970;2024-03-02T01:46:02;6.78;;;2.80;;
60312;SDS011;46158;52.850;6.970;2024-03-02T01:48:28;6.90;;;2.70;;
60312;SDS011;46158;52.850;6.970;2024-03-02T01:50:53;6.40;;;2.63;;
60312;SDS011;46158;52.850;6.970;2024-03-02T01:53:20;4.35;;;2.58;;
60312;SDS011;46158;52.850;6.970;2024-03-02T01:55:46;5.97;;;2.72;;
60312;SDS011;46158;52.850;6.970;2024-03-02T01:58:11;5.60;;;2.50;;
60312;SDS011;46158;52.850;6.970;2024-03-02T02:00:37;5.90;;;2.80;;
60312;SDS011;46158;52.850;6.970;2024-03-02T02:03:03;5.70;;;2.63;;
60312;SDS011;46158;52.850;6.970;2024-03-02T02:05:28;5.90;;;2.53;;
60312;SDS011;46158;52.850;6.970;2024-03-02T02:07:54;6.53;;;2.60;;
60312;SDS011;46158;52.850;6.970;2024-03-02T02:10:21;5.03;;;2.70;;
60312;SDS011;46158;52.850;6.970;2024-03-02T02:12:47;6.13;;;2.70;;
60312;SDS011;46158;52.850;6.970;2024-03-02T02:15:25;5.57;;;2.60;;
60312;SDS011;46158;52.850;6.970;2024-03-02T02:17:53;4.40;;;2.60;;
60312;SDS011;46158;52.850;6.970;2024-03-02T02:20:19;6.10;;;2.92;;
60312;SDS011;46158;52.850;6.970;2024-03-02T02:25:21;6.57;;;2.60;;
60312;SDS011;46158;52.850;6.970;2024-03-02T02:27:46;5.18;;;2.50;;
60312;SDS011;46158;52.850;6.970;2024-03-02T02:30:12;5.32;;;2.67;;
60312;SDS011;46158;52.850;6.970;2024-03-02T02:32:38;5.55;;;2.47;;
60312;SDS011;46158;52.850;6.970;2024-03-02T02:35:03;5.90;;;2.50;;
60312;SDS011;46158;52.850;6.970;2024-03-02T02:37:29;4.40;;;2.50;;
60312;SDS011;46158;52.850;6.970;2024-03-02T02:39:55;4.50;;;2.40;;
60312;SDS011;46158;52.850;6.970;2024-03-02T02:42:21;3.70;;;2.40;;
60312;SDS011;46158;52.850;6.970;2024-03-02T02:44:46;4.47;;;2.30;;
60312;SDS011;46158;52.850;6.970;2024-03-02T02:47:12;5.78;;;2.42;;
60312;SDS011;46158;52.850;6.970;2024-03-02T02:49:37;4.18;;;2.20;;
60312;SDS011;46158;52.850;6.970;2024-03-02T02:52:03;5.70;;;2.47;;
60312;SDS011;46158;52.850;6.970;2024-03-02T02:54:29;5.30;;;2.30;;
60312;SDS011;46158;52.850;6.970;2024-03-02T02:56:54;4.53;;;2.38;;
60312;SDS011;46158;52.850;6.970;2024-03-02T02:59:20;3.67;;;2.22;;
60312;SDS011;46158;52.850;6.970;2024-03-02T03:01:45;6.13;;;2.22;;
60312;SDS011;46158;52.850;6.970;2024-03-02T03:04:11;5.22;;;2.17;;
60312;SDS011;46158;52.850;6.970;2024-03-02T03:06:37;5.00;;;2.20;;
60312;SDS011;46158;52.850;6.970;2024-03-02T03:09:02;4.53;;;2.17;;
60312;SDS011;46158;52.850;6.970;2024-03-02T03:11:28;4.05;;;2.30;;
60312;SDS011;46158;52.850;6.970;2024-03-02T03:13:54;4.22;;;2.40;;
60312;SDS011;46158;52.850;6.970;2024-03-02T03:16:20;2.95;;;2.08;;
60312;SDS011;46158;52.850;6.970;2024-03-02T03:18:46;3.88;;;2.30;;
60312;SDS011;46158;52.850;6.970;2024-03-02T03:21:11;3.70;;;2.22;;
60312;SDS011;46158;52.850;6.970;2024-03-02T03:23:37;4.85;;;2.33;;
60312;SDS011;46158;52.850;6.970;2024-03-02T03:26:03;5.65;;;2.70;;
60312;SDS011;46158;52.850;6.970;2024-03-02T03:28:29;5.28;;;2.30;;
60312;SDS011;46158;52.850;6.970;2024-03-02T03:30:55;3.20;;;2.20;;
60312;SDS011;46158;52.850;6.970;2024-03-02T03:33:21;3.92;;;2.20;;
60312;SDS011;46158;52.850;6.970;2024-03-02T03:35:47;4.03;;;2.03;;
60312;SDS011;46158;52.850;6.970;2024-03-02T03:38:13;3.30;;;2.00;;
60312;SDS011;46158;52.850;6.970;2024-03-02T03:40:39;4.28;;;2.40;;
60312;SDS011;46158;52.850;6.970;2024-03-02T03:43:04;5.32;;;2.40;;
60312;SDS011;46158;52.850;6.970;2024-03-02T03:45:30;4.50;;;2.40;;
60312;SDS011;46158;52.850;6.970;2024-03-02T03:47:56;3.33;;;2.00;;
60312;SDS011;46158;52.850;6.970;2024-03-02T03:50:21;4.70;;;2.28;;
60312;SDS011;46158;52.850;6.970;2024-03-02T03:52:47;4.13;;;2.45;;
60312;SDS011;46158;52.850;6.970;2024-03-02T03:55:12;5.85;;;2.47;;
60312;SDS011;46158;52.850;6.970;2024-03-02T03:57:38;4.78;;;2.13;;
60312;SDS011;46158;52.850;6.970;2024-03-02T04:00:04;4.70;;;2.25;;
60312;SDS011;46158;52.850;6.970;2024-03-02T04:02:30;3.85;;;2.20;;
60312;SDS011;46158;52.850;6.970;2024-03-02T04:04:56;3.35;;;2.10;;
60312;SDS011;46158;52.850;6.970;2024-03-02T04:07:21;4.80;;;2.33;;
60312;SDS011;46158;52.850;6.970;2024-03-02T04:09:47;6.07;;;2.17;;
60312;SDS011;46158;52.850;6.970;2024-03-02T04:12:12;3.90;;;2.17;;
60312;SDS011;46158;52.850;6.970;2024-03-02T04:14:38;5.38;;;2.20;;
60312;SDS011;46158;52.850;6.970;2024-03-02T04:17:04;3.15;;;1.95;;
60312;SDS011;46158;52.850;6.970;2024-03-02T04:19:30;4.70;;;2.20;;
60312;SDS011;46158;52.850;6.970;2024-03-02T04:21:55;2.60;;;2.03;;
60312;SDS011;46158;52.850;6.970;2024-03-02T04:24:21;3.30;;;2.20;;
60312;SDS011;46158;52.850;6.970;2024-03-02T04:26:46;5.10;;;2.17;;
60312;SDS011;46158;52.850;6.970;2024-03-02T04:29:12;4.22;;;2.10;;
60312;SDS011;46158;52.850;6.970;2024-03-02T04:31:37;5.90;;;2.40;;
60312;SDS011;46158;52.850;6.970;2024-03-02T04:34:03;5.00;;;2.03;;
60312;SDS011;46158;52.850;6.970;2024-03-02T04:36:29;6.93;;;2.38;;
60312;SDS011;46158;52.850;6.970;2024-03-02T04:38:54;4.75;;;2.22;;
60312;SDS011;46158;52.850;6.970;2024-03-02T04:41:20;3.33;;;1.80;;
60312;SDS011;46158;52.850;6.970;2024-03-02T04:43:46;4.60;;;2.50;;
60312;SDS011;46158;52.850;6.970;2024-03-02T04:46:11;3.50;;;2.15;;
60312;SDS011;46158;52.850;6.970;2024-03-02T04:48:37;3.67;;;2.10;;
60312;SDS011;46158;52.850;6.970;2024-03-02T04:51:02;4.10;;;2.15;;
60312;SDS011;46158;52.850;6.970;2024-03-02T04:53:28;6.85;;;2.30;;
60312;SDS011;46158;52.850;6.970;2024-03-02T04:55:54;3.92;;;2.20;;
60312;SDS011;46158;52.850;6.970;2024-03-02T04:58:38;3.92;;;2.08;;
60312;SDS011;46158;52.850;6.970;2024-03-02T05:01:03;3.58;;;2.30;;
60312;SDS011;46158;52.850;6.970;2024-03-02T05:03:29;4.35;;;1.85;;
60312;SDS011;46158;52.850;6.970;2024-03-02T05:05:55;4.35;;;2.20;;
60312;SDS011;46158;52.850;6.970;2024-03-02T05:08:21;3.88;;;2.10;;
60312;SDS011;46158;52.850;6.970;2024-03-02T05:10:47;4.88;;;2.10;;
60312;SDS011;46158;52.850;6.970;2024-03-02T05:13:12;3.33;;;1.90;;
60312;SDS011;46158;52.850;6.970;2024-03-02T05:15:38;5.75;;;2.47;;
60312;SDS011;46158;52.850;6.970;2024-03-02T05:18:04;4.07;;;2.33;;
60312;SDS011;46158;52.850;6.970;2024-03-02T05:20:30;3.65;;;2.17;;
60312;SDS011;46158;52.850;6.970;2024-03-02T05:22:56;4.13;;;2.10;;
60312;SDS011;46158;52.850;6.970;2024-03-02T05:25:21;3.92;;;2.13;;
60312;SDS011;46158;52.850;6.970;2024-03-02T05:27:47;3.90;;;2.03;;
60312;SDS011;46158;52.850;6.970;2024-03-02T05:30:13;4.78;;;2.30;;
60312;SDS011;46158;52.850;6.970;2024-03-02T05:32:39;6.10;;;2.35;;
60312;SDS011;46158;52.850;6.970;2024-03-02T05:35:04;6.00;;;2.38;;
60312;SDS011;46158;52.850;6.970;2024-03-02T05:37:30;5.07;;;2.20;;
60312;SDS011;46158;52.850;6.970;2024-03-02T05:39:56;3.13;;;1.73;;
60312;SDS011;46158;52.850;6.970;2024-03-02T05:42:22;4.18;;;2.25;;
60312;SDS011;46158;52.850;6.970;2024-03-02T05:44:47;3.95;;;2.28;;
60312;SDS011;46158;52.850;6.970;2024-03-02T05:47:13;5.85;;;2.40;;
60312;SDS011;46158;52.850;6.970;2024-03-02T05:49:38;4.57;;;2.20;;
60312;SDS011;46158;52.850;6.970;2024-03-02T05:52:04;4.95;;;2.30;;
60312;SDS011;46158;52.850;6.970;2024-03-02T05:54:30;5.30;;;2.30;;
60312;SDS011;46158;52.850;6.970;2024-03-02T05:56:55;5.45;;;2.28;;
60312;SDS011;46158;52.850;6.970;2024-03-02T05:59:21;7.00;;;2.53;;
60312;SDS011;46158;52.850;6.970;2024-03-02T06:01:47;4.43;;;2.30;;
60312;SDS011;46158;52.850;6.970;2024-03-02T06:04:15;5.55;;;2.28;;
60312;SDS011;46158;52.850;6.970;2024-03-02T06:06:41;5.95;;;2.20;;
60312;SDS011;46158;52.850;6.970;2024-03-02T06:09:07;5.47;;;2.40;;
60312;SDS011;46158;52.850;6.970;2024-03-02T06:13:59;4.68;;;1.90;;
60312;SDS011;46158;52.850;6.970;2024-03-02T06:16:25;4.97;;;2.38;;
60312;SDS011;46158;52.850;6.970;2024-03-02T06:18:51;4.35;;;2.05;;
60312;SDS011;46158;52.850;6.970;2024-03-02T06:21:18;4.63;;;2.17;;
60312;SDS011;46158;52.850;6.970;2024-03-02T06:23:44;4.15;;;2.00;;
60312;SDS011;46158;52.850;6.970;2024-03-02T06:26:10;5.97;;;2.30;;
60312;SDS011;46158;52.850;6.970;2024-03-02T06:28:36;3.67;;;2.10;;
60312;SDS011;46158;52.850;6.970;2024-03-02T06:31:02;5.18;;;2.20;;
60312;SDS011;46158;52.850;6.970;2024-03-02T06:33:27;4.88;;;2.10;;
60312;SDS011;46158;52.850;6.970;2024-03-02T06:35:53;5.15;;;2.10;;
60312;SDS011;46158;52.850;6.970;2024-03-02T06:38:19;4.30;;;2.40;;
60312;SDS011;46158;52.850;6.970;2024-03-02T06:40:45;5.07;;;2.22;;
60312;SDS011;46158;52.850;6.970;2024-03-02T06:43:11;3.50;;;2.00;;
60312;SDS011;46158;52.850;6.970;2024-03-02T06:45:36;3.80;;;2.20;;
60312;SDS011;46158;52.850;6.970;2024-03-02T06:48:02;3.22;;;1.98;;
60312;SDS011;46158;52.850;6.970;2024-03-02T06:50:27;4.15;;;2.28;;
60312;SDS011;46158;52.850;6.970;2024-03-02T06:52:53;3.95;;;2.10;;
60312;SDS011;46158;52.850;6.970;2024-03-02T06:55:21;3.75;;;2.20;;
60312;SDS011;46158;52.850;6.970;2024-03-02T06:57:47;6.75;;;2.30;;
60312;SDS011;46158;52.850;6.970;2024-03-02T07:00:12;4.63;;;2.20;;
60312;SDS011;46158;52.850;6.970;2024-03-02T07:02:39;3.70;;;2.30;;
60312;SDS011;46158;52.850;6.970;2024-03-02T07:05:06;3.85;;;2.22;;
60312;SDS011;46158;52.850;6.970;2024-03-02T07:07:33;3.90;;;2.35;;
60312;SDS011;46158;52.850;6.970;2024-03-02T07:10:00;4.80;;;2.20;;
60312;SDS011;46158;52.850;6.970;2024-03-02T07:12:26;5.75;;;2.20;;
60312;SDS011;46158;52.850;6.970;2024-03-02T07:14:51;5.10;;;2.10;;
60312;SDS011;46158;52.850;6.970;2024-03-02T07:17:36;3.53;;;2.08;;
60312;SDS011;46158;52.850;6.970;2024-03-02T07:20:02;3.60;;;1.90;;
60312;SDS011;46158;52.850;6.970;2024-03-02T07:22:32;5.10;;;2.20;;
60312;SDS011;46158;52.850;6.970;2024-03-02T07:24:58;4.95;;;2.10;;
60312;SDS011;46158;52.850;6.970;2024-03-02T07:27:23;3.83;;;2.15;;
60312;SDS011;46158;52.850;6.970;2024-03-02T07:29:49;3.35;;;1.85;;
60312;SDS011;46158;52.850;6.970;2024-03-02T07:32:17;3.65;;;2.00;;
60312;SDS011;46158;52.850;6.970;2024-03-02T07:34:43;4.30;;;2.13;;
60312;SDS011;46158;52.850;6.970;2024-03-02T07:37:09;4.20;;;1.92;;
60312;SDS011;46158;52.850;6.970;2024-03-02T07:39:35;4.93;;;2.13;;
60312;SDS011;46158;52.850;6.970;2024-03-02T07:42:01;3.92;;;1.88;;
60312;SDS011;46158;52.850;6.970;2024-03-02T07:44:26;3.28;;;1.98;;
60312;SDS011;46158;52.850;6.970;2024-03-02T07:46:52;3.47;;;2.10;;
60312;SDS011;46158;52.850;6.970;2024-03-02T07:49:18;4.22;;;2.05;;
60312;SDS011;46158;52.850;6.970;2024-03-02T07:51:44;2.47;;;1.85;;
60312;SDS011;46158;52.850;6.970;2024-03-02T07:54:10;3.97;;;1.85;;
60312;SDS011;46158;52.850;6.970;2024-03-02T07:56:36;3.83;;;1.92;;
60312;SDS011;46158;52.850;6.970;2024-03-02T07:59:02;5.03;;;1.80;;
60312;SDS011;46158;52.850;6.970;2024-03-02T08:01:28;2.63;;;1.90;;
60312;SDS011;46158;52.850;6.970;2024-03-02T08:03:55;5.65;;;2.08;;
60312;SDS011;46158;52.850;6.970;2024-03-02T08:06:23;4.97;;;2.00;;
60312;SDS011;46158;52.850;6.970;2024-03-02T08:08:52;2.47;;;1.90;;
60312;SDS011;46158;52.850;6.970;2024-03-02T08:11:21;3.85;;;2.00;;
60312;SDS011;46158;52.850;6.970;2024-03-02T08:13:47;6.70;;;1.80;;
60312;SDS011;46158;52.850;6.970;2024-03-02T08:16:14;3.58;;;1.75;;
60312;SDS011;46158;52.850;6.970;2024-03-02T08:18:49;3.95;;;2.00;;
60312;SDS011;46158;52.850;6.970;2024-03-02T08:21:15;3.35;;;1.88;;
60312;SDS011;46158;52.850;6.970;2024-03-02T08:23:41;3.63;;;2.00;;
60312;SDS011;46158;52.850;6.970;2024-03-02T08:26:08;3.45;;;2.05;;
60312;SDS011;46158;52.850;6.970;2024-03-02T08:28:34;4.97;;;1.90;;
60312;SDS011;46158;52.850;6.970;2024-03-02T08:30:59;5.35;;;1.98;;
60312;SDS011;46158;52.850;6.970;2024-03-02T08:33:25;2.72;;;1.60;;
60312;SDS011;46158;52.850;6.970;2024-03-02T08:35:51;6.75;;;1.95;;
60312;SDS011;46158;52.850;6.970;2024-03-02T08:38:17;2.97;;;1.70;;
60312;SDS011;46158;52.850;6.970;2024-03-02T08:40:43;3.38;;;1.60;;
60312;SDS011;46158;52.850;6.970;2024-03-02T08:43:09;6.13;;;1.67;;
60312;SDS011;46158;52.850;6.970;2024-03-02T08:45:35;4.30;;;1.70;;
60312;SDS011;46158;52.850;6.970;2024-03-02T08:48:01;3.35;;;1.95;;
60312;SDS011;46158;52.850;6.970;2024-03-02T08:50:26;3.75;;;1.80;;
60312;SDS011;46158;52.850;6.970;2024-03-02T08:52:52;4.47;;;1.88;;
60312;SDS011;46158;52.850;6.970;2024-03-02T08:55:17;4.47;;;1.92;;
60312;SDS011;46158;52.850;6.970;2024-03-02T08:57:43;2.65;;;1.77;;
60312;SDS011;46158;52.850;6.970;2024-03-02T09:00:09;2.95;;;1.85;;
60312;SDS011;46158;52.850;6.970;2024-03-02T09:02:35;4.90;;;1.90;;
60312;SDS011;46158;52.850;6.970;2024-03-02T09:05:04;2.88;;;1.90;;
60312;SDS011;46158;52.850;6.970;2024-03-02T09:07:30;4.70;;;1.90;;
60312;SDS011;46158;52.850;6.970;2024-03-02T09:09:56;3.00;;;1.85;;
60312;SDS011;46158;52.850;6.970;2024-03-02T09:12:21;3.40;;;2.00;;
60312;SDS011;46158;52.850;6.970;2024-03-02T09:14:47;4.88;;;1.80;;
60312;SDS011;46158;52.850;6.970;2024-03-02T09:17:13;4.60;;;1.80;;
60312;SDS011;46158;52.850;6.970;2024-03-02T09:19:39;4.53;;;1.90;;
60312;SDS011;46158;52.850;6.970;2024-03-02T09:22:05;3.65;;;1.70;;
60312;SDS011;46158;52.850;6.970;2024-03-02T09:24:31;2.33;;;1.63;;
60312;SDS011;46158;52.850;6.970;2024-03-02T09:26:58;3.13;;;1.67;;
60312;SDS011;46158;52.850;6.970;2024-03-02T09:29:24;5.07;;;1.83;;
60312;SDS011;46158;52.850;6.970;2024-03-02T09:31:50;3.28;;;1.70;;
60312;SDS011;46158;52.850;6.970;2024-03-02T09:34:16;3.65;;;1.90;;
60312;SDS011;46158;52.850;6.970;2024-03-02T09:36:42;2.45;;;1.60;;
60312;SDS011;46158;52.850;6.970;2024-03-02T09:39:08;6.13;;;2.00;;
60312;SDS011;46158;52.850;6.970;2024-03-02T09:41:37;3.63;;;1.88;;
60312;SDS011;46158;52.850;6.970;2024-03-02T09:44:03;3.15;;;1.70;;
60312;SDS011;46158;52.850;6.970;2024-03-02T09:46:30;4.80;;;1.80;;
60312;SDS011;46158;52.850;6.970;2024-03-02T09:48:56;4.80;;;1.80;;
60312;SDS011;46158;52.850;6.970;2024-03-02T09:51:22;4.05;;;1.77;;
60312;SDS011;46158;52.850;6.970;2024-03-02T09:53:48;7.45;;;2.08;;
60312;SDS011;46158;52.850;6.970;2024-03-02T09:56:14;5.10;;;1.90;;
60312;SDS011;46158;52.850;6.970;2024-03-02T09:58:41;6.72;;;2.08;;
60312;SDS011;46158;52.850;6.970;2024-03-02T10:01:07;8.82;;;2.30;;
60312;SDS011;46158;52.850;6.970;2024-03-02T10:03:33;11.10;;;2.95;;
60312;SDS011;46158;52.850;6.970;2024-03-02T10:08:50;10.32;;;2.58;;
60312;SDS011;46158;52.850;6.970;2024-03-02T10:11:26;9.35;;;2.53;;
60312;SDS011;46158;52.850;6.970;2024-03-02T10:16:35;9.20;;;2.78;;
60312;SDS011;46158;52.850;6.970;2024-03-02T10:19:17;11.70;;;2.70;;
60312;SDS011;46158;52.850;6.970;2024-03-02T10:21:47;10.80;;;2.65;;
60312;SDS011;46158;52.850;6.970;2024-03-02T10:24:17;9.50;;;2.55;;
60312;SDS011;46158;52.850;6.970;2024-03-02T10:26:43;11.93;;;2.50;;
60312;SDS011;46158;52.850;6.970;2024-03-02T10:29:09;14.43;;;2.50;;
60312;SDS011;46158;52.850;6.970;2024-03-02T10:31:39;9.82;;;2.60;;
60312;SDS011;46158;52.850;6.970;2024-03-02T10:34:06;6.20;;;2.50;;
60312;SDS011;46158;52.850;6.970;2024-03-02T10:36:33;10.88;;;2.70;;
60312;SDS011;46158;52.850;6.970;2024-03-02T10:39:02;12.00;;;2.78;;
60312;SDS011;46158;52.850;6.970;2024-03-02T10:41:36;10.10;;;2.58;;
60312;SDS011;46158;52.850;6.970;2024-03-02T10:44:03;15.07;;;2.95;;
60312;SDS011;46158;52.850;6.970;2024-03-02T10:46:31;15.80;;;3.03;;
60312;SDS011;46158;52.850;6.970;2024-03-02T10:48:58;11.68;;;3.03;;
60312;SDS011;46158;52.850;6.970;2024-03-02T10:51:25;12.88;;;2.70;;
60312;SDS011;46158;52.850;6.970;2024-03-02T10:53:57;11.80;;;2.85;;
60312;SDS011;46158;52.850;6.970;2024-03-02T10:56:42;9.30;;;2.47;;
60312;SDS011;46158;52.850;6.970;2024-03-02T11:02:02;12.57;;;2.92;;
60312;SDS011;46158;52.850;6.970;2024-03-02T11:04:29;8.70;;;2.90;;
60312;SDS011;46158;52.850;6.970;2024-03-02T11:07:04;7.57;;;2.67;;
60312;SDS011;46158;52.850;6.970;2024-03-02T11:09:33;11.23;;;2.80;;
60312;SDS011;46158;52.850;6.970;2024-03-02T11:14:44;8.75;;;2.70;;
60312;SDS011;46158;52.850;6.970;2024-03-02T11:17:09;7.35;;;2.50;;
60312;SDS011;46158;52.850;6.970;2024-03-02T11:19:38;9.55;;;2.40;;
60312;SDS011;46158;52.850;6.970;2024-03-02T11:22:05;10.27;;;2.35;;
60312;SDS011;46158;52.850;6.970;2024-03-02T11:24:31;10.10;;;2.70;;
60312;SDS011;46158;52.850;6.970;2024-03-02T11:27:05;9.13;;;2.72;;
60312;SDS011;46158;52.850;6.970;2024-03-02T11:32:20;9.25;;;2.60;;
60312;SDS011;46158;52.850;6.970;2024-03-02T11:34:51;10.35;;;2.63;;
60312;SDS011;46158;52.850;6.970;2024-03-02T11:37:17;8.45;;;2.50;;
60312;SDS011;46158;52.850;6.970;2024-03-02T11:39:45;8.38;;;2.50;;
60312;SDS011;46158;52.850;6.970;2024-03-02T11:42:12;6.47;;;2.30;;
60312;SDS011;46158;52.850;6.970;2024-03-02T11:44:45;4.67;;;2.20;;
60312;SDS011;46158;52.850;6.970;2024-03-02T11:47:12;6.80;;;2.22;;
60312;SDS011;46158;52.850;6.970;2024-03-02T11:49:42;6.22;;;2.42;;
60312;SDS011;46158;52.850;6.970;2024-03-02T11:52:15;5.22;;;2.17;;
60312;SDS011;46158;52.850;6.970;2024-03-02T11:54:43;4.63;;;2.35;;
60312;SDS011;46158;52.850;6.970;2024-03-02T11:57:17;10.85;;;2.78;;
60312;SDS011;46158;52.850;6.970;2024-03-02T11:59:44;8.07;;;2.53;;
60312;SDS011;46158;52.850;6.970;2024-03-02T12:02:19;4.72;;;2.10;;
60312;SDS011;46158;52.850;6.970;2024-03-02T12:04:46;10.10;;;2.85;;
60312;SDS011;46158;52.850;6.970;2024-03-02T12:07:22;11.70;;;2.70;;
60312;SDS011;46158;52.850;6.970;2024-03-02T12:09:59;8.27;;;2.35;;
60312;SDS011;46158;52.850;6.970;2024-03-02T12:12:26;8.52;;;2.40;;
60312;SDS011;46158;52.850;6.970;2024-03-02T12:14:52;7.28;;;2.10;;
60312;SDS011;46158;52.850;6.970;2024-03-02T12:17:20;4.00;;;2.13;;
60312;SDS011;46158;52.850;6.970;2024-03-02T12:19:46;6.32;;;2.28;;
60312;SDS011;46158;52.850;6.970;2024-03-02T12:22:12;6.75;;;2.20;;
60312;SDS011;46158;52.850;6.970;2024-03-02T12:24:38;8.27;;;2.55;;
60312;SDS011;46158;52.850;6.970;2024-03-02T12:27:04;8.35;;;2.30;;
60312;SDS011;46158;52.850;6.970;2024-03-02T12:29:32;7.68;;;2.50;;
60312;SDS011;46158;52.850;6.970;2024-03-02T12:31:59;5.10;;;2.10;;
60312;SDS011;46158;52.850;6.970;2024-03-02T12:34:26;8.23;;;2.38;;
60312;SDS011;46158;52.850;6.970;2024-03-02T12:36:52;6.70;;;2.20;;
60312;SDS011;46158;52.850;6.970;2024-03-02T12:39:18;4.55;;;2.00;;
60312;SDS011;46158;52.850;6.970;2024-03-02T12:41:49;3.60;;;2.05;;
60312;SDS011;46158;52.850;6.970;2024-03-02T12:44:16;4.25;;;1.90;;
60312;SDS011;46158;52.850;6.970;2024-03-02T12:46:42;9.63;;;2.22;;
60312;SDS011;46158;52.850;6.970;2024-03-02T12:49:08;5.13;;;2.05;;
60312;SDS011;46158;52.850;6.970;2024-03-02T12:51:38;4.65;;;2.30;;
60312;SDS011;46158;52.850;6.970;2024-03-02T12:54:08;7.55;;;2.40;;
60312;SDS011;46158;52.850;6.970;2024-03-02T12:56:35;6.95;;;2.30;;
60312;SDS011;46158;52.850;6.970;2024-03-02T12:59:02;4.18;;;2.03;;
60312;SDS011;46158;52.850;6.970;2024-03-02T13:01:29;5.10;;;2.08;;
60312;SDS011;46158;52.850;6.970;2024-03-02T13:03:55;3.80;;;2.00;;
60312;SDS011;46158;52.850;6.970;2024-03-02T13:06:22;7.68;;;2.30;;
60312;SDS011;46158;52.850;6.970;2024-03-02T13:08:49;4.50;;;2.00;;
60312;SDS011;46158;52.850;6.970;2024-03-02T13:11:15;5.22;;;2.17;;
60312;SDS011;46158;52.850;6.970;2024-03-02T13:13:42;4.75;;;2.03;;
60312;SDS011;46158;52.850;6.970;2024-03-02T13:16:10;7.15;;;2.13;;
60312;SDS011;46158;52.850;6.970;2024-03-02T13:18:40;5.18;;;2.08;;
60312;SDS011;46158;52.850;6.970;2024-03-02T13:21:07;4.13;;;2.03;;
60312;SDS011;46158;52.850;6.970;2024-03-02T13:23:35;3.38;;;1.80;;
60312;SDS011;46158;52.850;6.970;2024-03-02T13:26:01;4.18;;;1.90;;
60312;SDS011;46158;52.850;6.970;2024-03-02T13:28:27;6.05;;;2.22;;
60312;SDS011;46158;52.850;6.970;2024-03-02T13:30:53;4.72;;;2.00;;
60312;SDS011;46158;52.850;6.970;2024-03-02T13:33:19;3.75;;;1.83;;
60312;SDS011;46158;52.850;6.970;2024-03-02T13:35:48;2.72;;;1.88;;
60312;SDS011;46158;52.850;6.970;2024-03-02T13:38:16;5.40;;;1.90;;
60312;SDS011;46158;52.850;6.970;2024-03-02T13:40:42;5.68;;;1.73;;
60312;SDS011;46158;52.850;6.970;2024-03-02T13:43:08;5.15;;;2.05;;
60312;SDS011;46158;52.850;6.970;2024-03-02T13:45:34;3.88;;;1.80;;
60312;SDS011;46158;52.850;6.970;2024-03-02T13:48:01;3.10;;;1.85;;
60312;SDS011;46158;52.850;6.970;2024-03-02T13:50:28;4.03;;;1.90;;
60312;SDS011;46158;52.850;6.970;2024-03-02T13:52:55;4.70;;;1.90;;
60312;SDS011;46158;52.850;6.970;2024-03-02T13:55:21;3.65;;;1.83;;
60312;SDS011;46158;52.850;6.970;2024-03-02T13:57:46;4.78;;;2.05;;
60312;SDS011;46158;52.850;6.970;2024-03-02T14:00:14;5.53;;;2.10;;
60312;SDS011;46158;52.850;6.970;2024-03-02T14:02:40;6.97;;;1.88;;
60312;SDS011;46158;52.850;6.970;2024-03-02T14:05:06;4.65;;;1.92;;
60312;SDS011;46158;52.850;6.970;2024-03-02T14:07:36;5.53;;;2.00;;
60312;SDS011;46158;52.850;6.970;2024-03-02T14:10:03;4.45;;;1.80;;
60312;SDS011;46158;52.850;6.970;2024-03-02T14:12:29;4.38;;;1.77;;
60312;SDS011;46158;52.850;6.970;2024-03-02T14:14:54;5.90;;;1.88;;
60312;SDS011;46158;52.850;6.970;2024-03-02T14:17:23;6.25;;;1.90;;
60312;SDS011;46158;52.850;6.970;2024-03-02T14:19:49;11.15;;;2.00;;
60312;SDS011;46158;52.850;6.970;2024-03-02T14:22:16;6.38;;;1.90;;
60312;SDS011;46158;52.850;6.970;2024-03-02T14:24:42;7.28;;;2.00;;
60312;SDS011;46158;52.850;6.970;2024-03-02T14:27:08;6.55;;;1.70;;
60312;SDS011;46158;52.850;6.970;2024-03-02T14:29:34;6.05;;;1.90;;
60312;SDS011;46158;52.850;6.970;2024-03-02T14:32:02;4.88;;;1.85;;
60312;SDS011;46158;52.850;6.970;2024-03-02T14:34:29;6.07;;;1.88;;
60312;SDS011;46158;52.850;6.970;2024-03-02T14:36:54;5.60;;;2.00;;
60312;SDS011;46158;52.850;6.970;2024-03-02T14:39:20;7.68;;;1.85;;
60312;SDS011;46158;52.850;6.970;2024-03-02T14:41:46;5.10;;;1.67;;
60312;SDS011;46158;52.850;6.970;2024-03-02T14:44:12;3.72;;;1.63;;
60312;SDS011;46158;52.850;6.970;2024-03-02T14:46:37;4.22;;;1.80;;
60312;SDS011;46158;52.850;6.970;2024-03-02T14:49:03;6.50;;;2.00;;
60312;SDS011;46158;52.850;6.970;2024-03-02T14:51:29;4.90;;;1.58;;
60312;SDS011;46158;52.850;6.970;2024-03-02T14:53:55;8.25;;;1.92;;
60312;SDS011;46158;52.850;6.970;2024-03-02T14:56:21;9.27;;;2.05;;
60312;SDS011;46158;52.850;6.970;2024-03-02T14:58:46;3.90;;;1.77;;
60312;SDS011;46158;52.850;6.970;2024-03-02T15:01:12;3.72;;;2.00;;
60312;SDS011;46158;52.850;6.970;2024-03-02T15:03:38;7.03;;;1.90;;
60312;SDS011;46158;52.850;6.970;2024-03-02T15:06:03;3.17;;;1.67;;
60312;SDS011;46158;52.850;6.970;2024-03-02T15:08:30;3.08;;;1.85;;